• Join FlightAware (Why Join?)
  • Login
  • US Flag 
10:58PM EDT


 

Airport Tracker/Info


-or-


 

Live Flight TrackerFlight Track Log ✈ UAL1259 ✈ 28-Apr-2013 ✈ KORD - KMSY

Flight Track Log - Related Links

Times and Time Zones

All times are in EDT time to prevent confusion due to time zone crossing. See the UAL1259 flight status page for this flight to view local times or setup timezone preferences in your user account.

Time Position Orientation Groundspeed Altitude Reporting Facility
EDT Latitude Longitude Course Direction KTS MPH feet Rate Location/Type
10:57PM 41.8500 -87.9500 191° South 265 305 5,400  Level Chicago TRACON
10:58PM 41.6275 -87.9879 189° South  Level Estimated
10:58PM 41.8008 -87.9553 185° South 270 311 7,800  Level Chicago Center
10:59PM 41.5094 -88.0148 189° South  Level Estimated
10:59PM 41.7169 -87.9714 188° South 300 345 11,000  Level Chicago Center
11:00PM 41.3913 -88.0416 194° South  Level Estimated
11:00PM 41.6258 -87.9953 191° South 333 383 13,000  Level Chicago Center
11:01PM 41.2732 -88.0683 180° South  Level Estimated
11:01PM 41.5197 -88.0222 191° South 384 442 15,800  Level Chicago Center
11:02PM 41.3989 -88.0514 190° South 401 461 19,000 2,820 Climbing Chicago Center
11:03PM 41.2856 -88.0800 191° South 409 471 21,600 2,340 Climbing Chicago Center
11:04PM 41.1689 -88.1097 191° South 423 487 23,800 1,980 Climbing Chicago Center
11:05PM 41.0481 -88.1394 191° South 437 503 25,600 1,680 Climbing Chicago Center
11:06PM 40.9222 -88.1706 191° South 458 527 27,300 1,560 Climbing Chicago Center
11:07PM 40.7944 -88.2014 190° South 467 537 28,800 1,740 Climbing Chicago Center
11:08PM 40.6372 -88.2397 190° South 479 551 30,900 1,800 Climbing Chicago Center
11:09PM 40.5078 -88.2717 191° South 477 549 32,500 1,380 Climbing Chicago Center
11:10PM 40.3769 -88.3039 191° South 479 551 33,800 1,260 Climbing Chicago Center
11:11PM 40.2719 -88.3300 191° South 481 554 34,900 1,320 Climbing Chicago Center
11:12PM 40.1294 -88.3639 190° South 483 556 36,600 1,200 Climbing Chicago Center
11:13PM 40.0233 -88.3892 190° South 480 552 37,400 720 Climbing Kansas City Center
11:14PM 39.8903 -88.4211 190° South 480 552 38,000 240 Climbing Kansas City Center
11:15PM 39.7589 -88.4522 190° South 480 552 38,000  Level Kansas City Center
11:16PM 39.6042 -88.4906 191° South 475 547 38,000  Level Kansas City Center
11:17PM 39.4736 -88.5217 190° South 475 547 38,000  Level Kansas City Center
11:18PM 39.3439 -88.5522 190° South 474 545 38,000  Level Kansas City Center
11:19PM 39.2142 -88.5833 191° South 474 545 38,000  Level Kansas City Center
11:20PM 39.0858 -88.6133 190° South 469 540 38,000  Level Kansas City Center
11:21PM 38.9528 -88.6433 190° South 470 541 38,000  Level Kansas City Center
11:22PM 38.8222 -88.6733 190° South 474 545 38,000  Level Kansas City Center
11:23PM 38.6939 -88.7028 190° South 470 541 38,000  Level Kansas City Center
11:24PM 38.5564 -88.7364 191° South 470 541 38,000  Level Kansas City Center
11:25PM 38.4289 -88.7644 190° South 467 537 38,000  Level Kansas City Center
11:26PM 38.3100 -88.7931 191° South 464 534 38,000  Level Kansas City Center
11:27PM 38.1828 -88.8194 189° South 463 533 38,000  Level Kansas City Center
11:28PM 38.0578 -88.8489 191° South 460 529 38,000  Level Kansas City Center
11:29PM 37.9328 -88.8758 190° South 456 525 38,000  Level Kansas City Center
11:30PM 37.7911 -88.9089 190° South 452 520 38,000  Level Kansas City Center
11:31PM 37.6672 -88.9361 190° South 449 517 38,000  Level Kansas City Center
11:32PM 37.5658 -88.9678 194° South 465 535 38,000  Level Memphis Center
11:33PM 37.4431 -88.9933 189° South 465 535 38,000  Level Memphis Center
11:34PM 37.3225 -89.0189 190° South 460 529 38,000  Level Memphis Center
11:35PM 37.1978 -89.0472 190° South 460 529 38,000  Level Memphis Center
11:36PM 37.0753 -89.0725 189° South 460 529 38,000  Level Memphis Center
11:37PM 36.9525 -89.1006 190° South 460 529 38,000  Level Memphis Center
11:38PM 36.8278 -89.1258 189° South 460 529 38,000  Level Memphis Center
11:39PM 36.7072 -89.1536 190° South 460 529 38,000  Level Memphis Center
11:40PM 36.5844 -89.1786 189° South 455 524 38,000  Level Memphis Center
11:41PM 36.4575 -89.2061 190° South 450 518 38,000  Level Memphis Center
11:42PM 36.3431 -89.2258 188° South 457 526 38,000  Level Memphis Center
11:43PM 36.1933 -89.2589 190° South 464 534 38,000  Level Memphis Center
11:44PM 36.0706 -89.2886 191° South 464 534 38,000  Level Memphis Center
11:45PM 35.9456 -89.3161 190° South 459 528 38,000  Level Memphis Center
11:46PM 35.8208 -89.3431 190° South 454 522 38,000  Level Memphis Center
11:47PM 35.6981 -89.3678 189° South 454 522 38,000  Level Memphis Center
11:48PM 35.5814 -89.3922 190° South 442 509 38,000  Level Memphis Center
11:49PM 35.4586 -89.4192 190° South 447 514 38,000  Level Memphis Center
11:50PM 35.3356 -89.4433 189° South 447 514 38,000  Level Memphis Center
11:51PM 35.2272 -89.4675 190° South 447 514 38,000  Level Memphis Center
11:52PM 35.1022 -89.4917 189° South 447 514 38,000  Level Memphis Center
11:53PM 34.9794 -89.5156 189° South 447 514 38,000  Level Memphis Center
11:54PM 34.8503 -89.5397 189° South 454 522 38,000  Level Memphis Center
11:55PM 34.7128 -89.5714 191° South 459 528 38,000  Level Memphis Center
11:56PM 34.5919 -89.6003 191° South 459 528 38,000  Level Memphis Center
11:57PM 34.4711 -89.6264 190° South 452 520 38,000  Level Memphis Center
11:58PM 34.3481 -89.6503 189° South 444 511 38,000  Level Memphis Center
11:59PM 34.2272 -89.6764 190° South 450 518 38,000  Level Memphis Center
12:00AM 34.1208 -89.6972 189° South 450 518 38,000  Level Memphis Center
12:01AM 34.0000 -89.7233 190° South 443 510 38,000  Level Memphis Center
12:02AM 33.8789 -89.7492 190° South 443 510 38,000  Level Memphis Center
12:03AM 33.7644 -89.7750 191° South 438 504 38,000  Level Memphis Center
12:04AM 33.6456 -89.7983 189° South 438 504 38,000  Level Memphis Center
12:05AM 33.5244 -89.8239 190° South 433 498 38,000  Level Memphis Center
12:06AM 33.3931 -89.8497 189° South 438 504 38,000  Level Memphis Center
12:07AM 33.2764 -89.8728 189° South 438 504 38,000  Level Memphis Center
12:08AM 33.1575 -89.8956 189° South 438 504 38,000  Level Memphis Center
12:09AM 33.0344 -89.9211 190° South 438 504 38,000  Level Memphis Center
12:10AM 32.9114 -89.9442 189° South 448 516 38,000  Level Memphis Center
12:11AM 32.8028 -89.9692 191° South 448 516 38,000  Level Memphis Center
12:12AM 32.6839 -89.9894 188° South 448 516 38,000  Level Memphis Center
12:13AM 32.5669 -90.0122 189° South 443 510 38,000 -300 Level Memphis Center
12:14AM 32.4461 -90.0347 189° South 443 510 37,400 -780 Descending Memphis Center
12:15AM 32.3250 -90.0600 190° South 443 510 36,500 -900 Descending Memphis Center
12:16AM 32.2061 -90.0822 189° South 448 516 35,600 -960 Descending Memphis Center
12:17AM 32.0850 -90.1072 190° South 448 516 34,600 -1,080 Descending Memphis Center
12:19AM 31.8789 -90.1472 189° South 416 479 32,700 -1,080 Descending Houston Center
12:20AM 31.7669 -90.1692 189° South 411 473 31,700 -1,020 Descending Houston Center
12:21AM 31.6561 -90.1911 190° South 407 468 30,700 -1,020 Descending Houston Center
12:22AM 31.5444 -90.2114 189° South 408 470 29,700 -1,500 Descending Houston Center
12:23AM 31.4328 -90.2333 190° South 408 470 27,800 -2,040 Descending Houston Center
12:24AM 31.3258 -90.2542 189° South 394 453 25,600 -2,160 Descending Houston Center
12:25AM 31.2197 -90.2517 179° South 384 442 23,500 -2,040 Descending Houston Center
12:26AM 31.1175 -90.2450 177° South 372 428 21,500 -2,040 Descending Houston Center
12:27AM 31.0183 -90.2369 176° South 361 415 19,500 -2,100 Descending Houston Center
12:28AM 30.9058 -90.2292 177° South 341 392 17,400 -2,040 Descending Houston Center
12:28AM 30.8381 -90.2239 176° South 335 386 16,100 -1,920 Descending Houston Center
12:29AM 30.8119 -90.2225 177° South 340 391 15,500 -1,860 Descending Houston Center
12:30AM 30.7186 -90.2219 180° South 338 389 13,700 -1,740 Descending Houston Center
12:31AM 30.6236 -90.2494 194° South 313 360 11,800 -1,740 Descending Houston Center
12:32AM 30.5367 -90.2772 195° South 301 346 10,000 -1,740 Descending Houston Center
12:33AM 30.4744 -90.2978 196° South 296 341 8,600 -1,680 Descending Houston Center
12:34AM 30.3967 -90.3228 195° South 293 337 6,900 -1,680 Descending Houston Center
12:35AM 30.3211 -90.3483 196° South 287 330 5,300 -1,440 Descending Houston Center
12:36AM 30.2481 -90.3753 198° South 283 326 4,000 -1,020 Descending Houston Center
12:37AM 30.1808 -90.3972 196° South 218 251 3,400 -960 Descending Houston Center
12:38AM 30.1250 -90.4139 194° South 199 229 2,200 -720 Descending Houston Center
12:39AM 30.0772 -90.4275 194° South 171 197 2,000 -60 Descending Houston Center
12:40AM 30.0328 -90.4078 159° South 166 191 2,100 -300 Climbing Houston Center
12:41AM 30.0189 -90.3678 112° Southeast 162 186 1,400 -720 Descending Houston Center
12:42AM 30.0053 -90.3222 109° East 139 160 700 -600 Descending Houston Center
12:43AM 29.9958 -90.2775 104° East 145 167 200 -540 Descending Houston Center